Urb Las Cumbres, Puerto Rico
Current Conditions -  °F | °C
As of 2:56 PM on Thursday 27 Nov 2014 (Local Time) from TJSJ Reporting Station
Scattered Clouds Scattered Clouds  
Wind Chill: 84°   Ceiling: Unl
Heat Index: 88°   Visibility: 10mi
Dew Point: 70°   Wind: 10mph
Humidity: 63%   Direction: 60°ENE
Pressure: 29.93"   Gusts: NA
Location:  18.3754°N, 66.0577°W
Report Text: TJSJ 271856Z 06009KT 10SM SCT036 29/21 A2993 RMK AO2 SLP133 T02890211
Loading
Personal Weather Stations






























Interactive Weather Map New forecast layout! Learn more

10-Day Weather Forecast

Advertisements
Track Severe Weather on mobile